Time;durP1;ratioP1;P1;durP2;ratioP2;P2;SDS_P1;SDS_P2;PMS_P1;PMS_P2;Temp;Humidity;BMP_temperature;BMP_pressure;BME280_temperature;BME280_humidity;BME280_pressure;Samples;Min_cycle;Max_cycle;Signal;HPM_P1;HPM_P2
2022/06/13 00:01:59;;;;;;;5.00;2.20;;;;;;;;;;4974225;28;20425;-71
2022/06/13 00:04:25;;;;;;;3.70;1.93;;;;;;;;;;4974126;28;20023;-73
2022/06/13 00:06:50;;;;;;;3.30;2.30;;;;;;;;;;4974875;28;20743;-71
2022/06/13 00:09:15;;;;;;;3.30;2.30;;;;;;;;;;4974227;28;20733;-71
2022/06/13 00:11:41;;;;;;;4.72;2.35;;;;;;;;;;4974212;28;20532;-71
2022/06/13 00:14:07;;;;;;;4.40;2.40;;;;;;;;;;4974177;28;20496;-70
2022/06/13 00:16:33;;;;;;;5.07;2.13;;;;;;;;;;4974338;28;20507;-71
2022/06/13 00:18:58;;;;;;;7.75;2.20;;;;;;;;;;4974034;28;20041;-70
2022/06/13 00:21:27;;;;;;;4.55;2.60;;;;;;;;;;4973976;28;20106;-70
2022/06/13 00:23:53;;;;;;;7.28;2.53;;;;;;;;;;4974082;28;20097;-69
2022/06/13 00:26:23;;;;;;;5.47;2.50;;;;;;;;;;4973960;28;20058;-69
2022/06/13 00:28:50;;;;;;;4.18;2.80;;;;;;;;;;4974235;28;20448;-70
2022/06/13 00:31:15;;;;;;;5.82;2.30;;;;;;;;;;4974074;28;20046;-70
2022/06/13 00:33:41;;;;;;;7.13;2.58;;;;;;;;;;4974143;28;20472;-69
2022/06/13 00:36:07;;;;;;;3.97;2.42;;;;;;;;;;4973944;28;20023;-69
2022/06/13 00:38:32;;;;;;;3.47;2.20;;;;;;;;;;4974163;28;20023;-69
2022/06/13 00:40:57;;;;;;;4.40;2.30;;;;;;;;;;4973748;28;20061;-69
2022/06/13 00:43:23;;;;;;;7.43;2.50;;;;;;;;;;4974127;28;20058;-69
2022/06/13 00:45:48;;;;;;;6.38;2.80;;;;;;;;;;4976910;28;20030;-70
2022/06/13 00:48:16;;;;;;;5.33;2.23;;;;;;;;;;4977531;28;20026;-69
2022/06/13 00:50:48;;;;;;;7.10;2.60;;;;;;;;;;4960450;28;20264;-70
2022/06/13 00:53:23;;;;;;;6.40;2.60;;;;;;;;;;4977306;28;20045;-69
2022/06/13 00:55:53;;;;;;;7.65;2.35;;;;;;;;;;4977248;28;20088;-69
2022/06/13 00:58:19;;;;;;;5.00;2.30;;;;;;;;;;4977644;28;20038;-69
2022/06/13 01:00:47;;;;;;;7.53;2.70;;;;;;;;;;4977550;28;20102;-70
2022/06/13 01:03:13;;;;;;;4.15;2.40;;;;;;;;;;4977277;28;20400;-70
2022/06/13 01:05:44;;;;;;;3.83;2.30;;;;;;;;;;4977443;28;20030;-70
2022/06/13 01:08:10;;;;;;;3.35;2.40;;;;;;;;;;4977519;28;20035;-70
2022/06/13 01:13:38;;;;;;;6.43;2.45;;;;;;;;;;4977499;28;20049;-69
2022/06/13 01:16:21;;;;;;;7.20;2.30;;;;;;;;;;4977360;28;20053;-69
2022/06/13 01:19:08;;;;;;;3.78;2.45;;;;;;;;;;4977569;28;20078;-70
2022/06/13 01:21:43;;;;;;;7.28;2.42;;;;;;;;;;4976913;28;20519;-70
2022/06/13 01:24:50;;;;;;;5.40;2.58;;;;;;;;;;4976811;28;20038;-69
2022/06/13 01:27:39;;;;;;;3.70;2.33;;;;;;;;;;4963463;28;20512;-75
2022/06/13 01:30:35;;;;;;;5.95;2.63;;;;;;;;;;4976852;28;20038;-76
2022/06/13 01:33:23;;;;;;;4.20;2.40;;;;;;;;;;4976668;28;20026;-76
2022/06/13 01:36:21;;;;;;;4.07;2.38;;;;;;;;;;4976788;28;20495;-76
2022/06/13 01:39:11;;;;;;;4.45;2.53;;;;;;;;;;4976277;28;20126;-76
2022/06/13 01:41:55;;;;;;;6.28;2.67;;;;;;;;;;4959247;28;20037;-76
2022/06/13 01:44:42;;;;;;;3.55;2.33;;;;;;;;;;4976788;28;20113;-77
2022/06/13 01:47:29;;;;;;;6.05;2.70;;;;;;;;;;4976665;28;20113;-77
2022/06/13 01:50:10;;;;;;;4.47;2.90;;;;;;;;;;4977099;28;20416;-76
2022/06/13 01:52:54;;;;;;;6.25;2.63;;;;;;;;;;4955757;29;20034;-77
2022/06/13 01:55:28;;;;;;;4.63;2.60;;;;;;;;;;4957147;28;20031;-77
2022/06/13 01:58:06;;;;;;;5.30;2.50;;;;;;;;;;4956376;28;20039;-76
2022/06/13 02:00:34;;;;;;;6.22;2.40;;;;;;;;;;4957282;28;20035;-76
2022/06/13 02:03:09;;;;;;;6.28;2.58;;;;;;;;;;4971536;28;20031;-76
2022/06/13 02:05:58;;;;;;;7.55;2.95;;;;;;;;;;4957240;28;20031;-76
2022/06/13 02:08:38;;;;;;;5.88;2.88;;;;;;;;;;4956990;28;20039;-77
2022/06/13 02:11:29;;;;;;;6.80;2.60;;;;;;;;;;4957114;28;20020;-77
2022/06/13 02:14:05;;;;;;;4.47;2.60;;;;;;;;;;4957087;28;20396;-76
2022/06/13 02:16:36;;;;;;;6.60;2.65;;;;;;;;;;4957176;28;20054;-76
2022/06/13 02:19:11;;;;;;;6.82;2.80;;;;;;;;;;4956723;28;20034;-77
2022/06/13 02:21:43;;;;;;;6.15;2.40;;;;;;;;;;4957148;28;20027;-77
2022/06/13 02:24:14;;;;;;;5.03;2.53;;;;;;;;;;4956630;28;20031;-77
2022/06/13 02:26:42;;;;;;;8.95;2.70;;;;;;;;;;4956499;28;20065;-77
2022/06/13 02:29:25;;;;;;;5.55;2.70;;;;;;;;;;4956766;28;20062;-75
2022/06/13 02:31:56;;;;;;;6.68;2.40;;;;;;;;;;4956613;28;20023;-76
2022/06/13 02:34:26;;;;;;;6.22;2.53;;;;;;;;;;4956557;28;20055;-77
2022/06/13 02:36:58;;;;;;;5.90;2.60;;;;;;;;;;4956596;28;20391;-76
2022/06/13 02:39:46;;;;;;;6.25;2.65;;;;;;;;;;4971278;28;20027;-76
2022/06/13 02:42:27;;;;;;;6.90;3.08;;;;;;;;;;4956272;28;20086;-75
2022/06/13 02:45:03;;;;;;;8.35;2.60;;;;;;;;;;4971701;28;20027;-76
2022/06/13 02:47:45;;;;;;;7.53;2.88;;;;;;;;;;4956280;28;20105;-76
2022/06/13 02:50:21;;;;;;;8.85;2.67;;;;;;;;;;4956430;28;20031;-75
2022/06/13 02:53:01;;;;;;;7.18;2.65;;;;;;;;;;4961298;28;20042;-75
2022/06/13 02:55:27;;;;;;;5.80;2.80;;;;;;;;;;4975605;28;20025;-76
2022/06/13 02:58:07;;;;;;;7.60;2.90;;;;;;;;;;4975472;28;20022;-75
2022/06/13 03:00:55;;;;;;;7.90;2.90;;;;;;;;;;4975088;28;20030;-76
2022/06/13 03:03:27;;;;;;;5.18;2.75;;;;;;;;;;4975078;28;20231;-76
2022/06/13 03:05:57;;;;;;;5.88;2.80;;;;;;;;;;4975276;28;20023;-76
2022/06/13 03:08:36;;;;;;;8.82;3.22;;;;;;;;;;4975155;28;20018;-75
2022/06/13 03:11:27;;;;;;;8.88;3.00;;;;;;;;;;4975056;28;20038;-75
2022/06/13 03:14:12;;;;;;;6.50;2.67;;;;;;;;;;4974933;28;20053;-75
2022/06/13 03:16:53;;;;;;;5.15;2.60;;;;;;;;;;4957610;28;20031;-76
2022/06/13 03:19:25;;;;;;;6.22;2.78;;;;;;;;;;4975088;28;20029;-76
2022/06/13 03:21:59;;;;;;;6.75;2.83;;;;;;;;;;4975181;28;20027;-76
2022/06/13 03:24:48;;;;;;;6.75;2.65;;;;;;;;;;4974539;28;20404;-76
2022/06/13 03:27:31;;;;;;;3.78;1.98;;;;;;;;;;4974963;28;20030;-76
2022/06/13 03:30:16;;;;;;;7.80;2.20;;;;;;;;;;4974896;28;20030;-76
2022/06/13 03:33:39;;;;;;;7.03;2.25;;;;;;;;;;4974884;28;20365;-76
2022/06/13 03:35:34;;;;;;;9.50;2.10;;;;;;;;;;4974384;28;20027;-76
2022/06/13 03:38:02;;;;;;;5.00;1.95;;;;;;;;;;4957712;28;20031;-76
2022/06/13 03:40:28;;;;;;;5.45;2.20;;;;;;;;;;4974567;28;20026;-76
2022/06/13 03:43:09;;;;;;;6.72;1.95;;;;;;;;;;4974255;28;20037;-76
2022/06/13 03:45:55;;;;;;;4.40;1.92;;;;;;;;;;4974865;28;20484;-77
2022/06/13 03:48:26;;;;;;;7.85;2.20;;;;;;;;;;4974576;28;20038;-77
2022/06/13 03:51:00;;;;;;;5.50;2.00;;;;;;;;;;4974433;28;20441;-76
2022/06/13 03:53:41;;;;;;;6.18;2.33;;;;;;;;;;4974112;28;20093;-77
2022/06/13 03:56:43;;;;;;;4.80;2.10;;;;;;;;;;4974824;28;20042;-77
2022/06/13 03:59:15;;;;;;;3.70;2.00;;;;;;;;;;4957194;28;20038;-77
2022/06/13 04:02:05;;;;;;;8.23;1.80;;;;;;;;;;4974096;28;20035;-76
2022/06/13 04:04:35;;;;;;;8.18;2.10;;;;;;;;;;4960838;28;20074;-76
2022/06/13 04:07:01;;;;;;;5.60;1.90;;;;;;;;;;4974534;28;20018;-77
2022/06/13 04:09:31;;;;;;;4.22;1.67;;;;;;;;;;4974294;28;20031;-76
2022/06/13 04:12:22;;;;;;;4.15;1.88;;;;;;;;;;4973953;28;20049;-76
2022/06/13 04:14:59;;;;;;;5.93;1.85;;;;;;;;;;4974559;28;20145;-76
2022/06/13 04:17:36;;;;;;;5.10;1.80;;;;;;;;;;4974190;28;20484;-76
2022/06/13 04:20:19;;;;;;;4.47;1.95;;;;;;;;;;4975979;28;20031;-76
2022/06/13 04:23:06;;;;;;;8.88;1.92;;;;;;;;;;4978198;28;20051;-76
2022/06/13 04:25:46;;;;;;;5.60;1.88;;;;;;;;;;4978301;28;20481;-77
2022/06/13 04:28:18;;;;;;;8.70;2.10;;;;;;;;;;4978270;28;20054;-77
2022/06/13 04:30:44;;;;;;;6.45;2.05;;;;;;;;;;4977995;28;20031;-76
2022/06/13 04:33:23;;;;;;;5.40;1.90;;;;;;;;;;4978086;28;20408;-77
2022/06/13 04:35:49;;;;;;;4.57;1.90;;;;;;;;;;4977870;28;20030;-76
2022/06/13 04:38:17;;;;;;;5.43;1.90;;;;;;;;;;4978225;28;20495;-76
2022/06/13 04:40:56;;;;;;;6.20;2.05;;;;;;;;;;4977972;28;20033;-76
2022/06/13 04:43:27;;;;;;;4.10;1.88;;;;;;;;;;4978255;28;20033;-75
2022/06/13 04:45:57;;;;;;;7.93;2.08;;;;;;;;;;4977818;28;20026;-76
2022/06/13 04:48:24;;;;;;;8.00;2.15;;;;;;;;;;4960367;28;20113;-75
2022/06/13 04:50:52;;;;;;;5.80;2.00;;;;;;;;;;4977492;28;20102;-77
2022/06/13 04:53:26;;;;;;;7.05;2.10;;;;;;;;;;4976758;28;20031;-77
2022/06/13 04:55:53;;;;;;;4.78;1.90;;;;;;;;;;4977573;28;20031;-76
2022/06/13 04:58:27;;;;;;;6.47;1.90;;;;;;;;;;4977752;28;20381;-77
2022/06/13 05:01:02;;;;;;;4.30;2.03;;;;;;;;;;4977731;28;20164;-77
2022/06/13 05:03:31;;;;;;;5.57;2.10;;;;;;;;;;4960030;28;20547;-77
2022/06/13 05:06:01;;;;;;;5.47;2.00;;;;;;;;;;4977762;28;20037;-77
2022/06/13 05:08:29;;;;;;;7.45;2.00;;;;;;;;;;4977450;28;20030;-76
2022/06/13 05:11:22;;;;;;;6.35;2.45;;;;;;;;;;4977367;28;20098;-76
2022/06/13 05:13:53;;;;;;;5.57;2.20;;;;;;;;;;4977339;28;20478;-74
2022/06/13 05:16:31;;;;;;;6.38;2.25;;;;;;;;;;4959951;28;20058;-76
2022/06/13 05:19:25;;;;;;;5.50;1.98;;;;;;;;;;4977327;28;20106;-74
2022/06/13 05:22:06;;;;;;;7.05;2.22;;;;;;;;;;4977203;28;20449;-77
2022/06/13 05:24:38;;;;;;;8.73;2.10;;;;;;;;;;4977696;28;20037;-77
2022/06/13 05:27:06;;;;;;;9.27;2.20;;;;;;;;;;4977129;28;20027;-76
2022/06/13 05:29:32;;;;;;;6.72;1.90;;;;;;;;;;4976921;28;20031;-76
2022/06/13 05:31:57;;;;;;;3.70;2.00;;;;;;;;;;4960113;28;20080;-77
2022/06/13 05:34:33;;;;;;;5.33;2.07;;;;;;;;;;4976741;28;20042;-77
2022/06/13 05:36:59;;;;;;;7.05;2.00;;;;;;;;;;4976704;28;20268;-76
2022/06/13 05:39:25;;;;;;;5.40;2.08;;;;;;;;;;4977089;28;20065;-76
2022/06/13 05:41:50;;;;;;;4.55;1.77;;;;;;;;;;4976913;28;20062;-77
2022/06/13 05:44:16;;;;;;;6.87;1.80;;;;;;;;;;4977025;28;20030;-76
2022/06/13 05:46:42;;;;;;;5.15;1.85;;;;;;;;;;4976660;28;20724;-76
2022/06/13 05:49:12;;;;;;;6.70;1.80;;;;;;;;;;4976890;28;20109;-77
2022/06/13 05:51:37;;;;;;;5.65;2.03;;;;;;;;;;4977014;28;20381;-77
2022/06/13 05:54:03;;;;;;;6.75;1.80;;;;;;;;;;4976643;28;20031;-76
2022/06/13 05:56:28;;;;;;;6.20;1.58;;;;;;;;;;4976480;28;20035;-77
2022/06/13 05:58:54;;;;;;;7.15;1.92;;;;;;;;;;4976376;28;20484;-77
2022/06/13 06:01:19;;;;;;;7.47;2.10;;;;;;;;;;4958863;28;20086;-75
2022/06/13 06:03:47;;;;;;;6.22;1.80;;;;;;;;;;4976160;28;20136;-75
2022/06/13 06:06:19;;;;;;;4.22;1.73;;;;;;;;;;4976132;28;20114;-75
2022/06/13 06:08:44;;;;;;;4.63;1.70;;;;;;;;;;4959380;28;20428;-76
2022/06/13 06:11:09;;;;;;;6.57;1.83;;;;;;;;;;4976248;28;20081;-76
2022/06/13 06:13:35;;;;;;;5.43;2.17;;;;;;;;;;4976308;28;20030;-76
2022/06/13 06:16:01;;;;;;;7.57;2.30;;;;;;;;;;4976340;28;20268;-76
2022/06/13 06:18:29;;;;;;;12.10;2.15;;;;;;;;;;4976427;28;20687;-75
2022/06/13 06:20:54;;;;;;;4.80;1.80;;;;;;;;;;4958519;28;20070;-77
2022/06/13 06:23:20;;;;;;;7.55;1.85;;;;;;;;;;4976092;28;20050;-77
2022/06/13 06:25:49;;;;;;;6.65;2.22;;;;;;;;;;4975783;28;20022;-76
2022/06/13 06:28:18;;;;;;;6.13;1.95;;;;;;;;;;4975901;28;20027;-76
2022/06/13 06:30:43;;;;;;;4.72;1.92;;;;;;;;;;4975338;28;20113;-77
2022/06/13 06:33:09;;;;;;;10.43;1.70;;;;;;;;;;4975759;28;20130;-77
2022/06/13 06:35:35;;;;;;;6.07;1.95;;;;;;;;;;4976163;28;20023;-76
2022/06/13 06:38:01;;;;;;;8.43;2.10;;;;;;;;;;4975757;28;20038;-78
2022/06/13 06:40:27;;;;;;;5.88;1.67;;;;;;;;;;4976121;28;20396;-77
2022/06/13 06:42:53;;;;;;;3.92;1.77;;;;;;;;;;4974869;28;20061;-75
2022/06/13 06:45:18;;;;;;;7.30;1.80;;;;;;;;;;4975951;28;20046;-78
2022/06/13 06:47:44;;;;;;;6.97;1.75;;;;;;;;;;4976567;28;20054;-76
2022/06/13 06:50:13;;;;;;;5.15;1.85;;;;;;;;;;4975837;28;20038;-77
2022/06/13 06:52:39;;;;;;;7.68;1.70;;;;;;;;;;4975359;28;20026;-75
2022/06/13 07:00:33;;;;;;;;;;;;;;;;;;4975973;28;20065;-77
2022/06/13 07:02:58;;;;;;;6.90;2.20;;;;;;;;;;4974040;28;19961;-76
2022/06/13 07:05:23;;;;;;;7.37;2.13;;;;;;;;;;4977304;28;20264;-77
2022/06/13 07:07:49;;;;;;;6.27;1.90;;;;;;;;;;4975928;28;20256;-76
2022/06/13 07:10:15;;;;;;;5.93;1.67;;;;;;;;;;4988871;28;20288;-77
2022/06/13 07:12:41;;;;;;;6.25;2.05;;;;;;;;;;4973945;28;20045;-76
2022/06/13 07:15:07;;;;;;;5.00;1.83;;;;;;;;;;4992278;28;20021;-77
2022/06/13 07:17:32;;;;;;;7.07;2.10;;;;;;;;;;4990441;28;20031;-77
2022/06/13 07:19:58;;;;;;;6.23;1.83;;;;;;;;;;4992842;28;20050;-75
2022/06/13 07:22:24;;;;;;;10.88;2.33;;;;;;;;;;4993949;28;20281;-75
2022/06/13 07:24:51;;;;;;;8.90;2.10;;;;;;;;;;4996237;28;20035;-76
2022/06/13 07:27:16;;;;;;;7.15;1.67;;;;;;;;;;4995576;28;20030;-76
2022/06/13 07:29:42;;;;;;;6.55;1.95;;;;;;;;;;4993949;28;20026;-76
2022/06/13 07:32:20;;;;;;;8.27;1.63;;;;;;;;;;4992969;28;20029;-76
2022/06/13 07:34:49;;;;;;;6.05;1.60;;;;;;;;;;4975494;28;20027;-75
2022/06/13 07:38:16;;;;;;;7.30;1.73;;;;;;;;;;4990789;28;20090;-75
2022/06/13 07:40:05;;;;;;;4.28;1.50;;;;;;;;;;4986861;28;20033;-76
2022/06/13 07:42:35;;;;;;;5.13;1.42;;;;;;;;;;4988039;28;20062;-75
2022/06/13 07:45:00;;;;;;;5.68;1.63;;;;;;;;;;4989177;28;20033;-75
2022/06/13 07:47:26;;;;;;;3.53;1.48;;;;;;;;;;4991426;28;20070;-76
2022/06/13 07:49:51;;;;;;;9.38;1.70;;;;;;;;;;4981705;28;20030;-77
2022/06/13 07:52:16;;;;;;;7.00;1.55;;;;;;;;;;4974587;28;20027;-75
2022/06/13 07:54:42;;;;;;;5.80;1.70;;;;;;;;;;4975111;28;20023;-77
2022/06/13 07:57:11;;;;;;;9.70;1.70;;;;;;;;;;4974985;28;20300;-76
2022/06/13 07:59:36;;;;;;;4.35;1.73;;;;;;;;;;4974599;28;20679;-75
2022/06/13 08:02:02;;;;;;;5.25;1.60;;;;;;;;;;4974173;28;20155;-76
2022/06/13 08:04:28;;;;;;;5.15;1.90;;;;;;;;;;4973961;28;20074;-76
2022/06/13 08:06:53;;;;;;;5.10;1.92;;;;;;;;;;4974488;28;20052;-75
2022/06/13 08:09:18;;;;;;;5.82;1.90;;;;;;;;;;4974467;28;20496;-76
2022/06/13 08:11:48;;;;;;;5.73;1.77;;;;;;;;;;4974562;28;20472;-77
2022/06/13 08:14:14;;;;;;;6.43;1.90;;;;;;;;;;4974074;28;20267;-76
2022/06/13 08:16:40;;;;;;;11.90;2.00;;;;;;;;;;4974275;28;20054;-75
2022/06/13 08:19:06;;;;;;;6.05;1.90;;;;;;;;;;4974577;28;20035;-76
2022/06/13 08:21:33;;;;;;;7.85;2.17;;;;;;;;;;4974359;28;20027;-76
2022/06/13 08:23:59;;;;;;;6.50;2.08;;;;;;;;;;4974055;28;20038;-76
2022/06/13 08:26:24;;;;;;;9.47;2.20;;;;;;;;;;4974135;28;20026;-76
2022/06/13 08:28:49;;;;;;;10.50;1.80;;;;;;;;;;4974319;28;20275;-77
2022/06/13 08:31:17;;;;;;;5.90;1.70;;;;;;;;;;4974044;28;20674;-76
2022/06/13 08:33:43;;;;;;;4.82;1.85;;;;;;;;;;4973958;28;20034;-76
2022/06/13 08:36:09;;;;;;;7.10;1.92;;;;;;;;;;4974308;28;20031;-78
2022/06/13 08:38:36;;;;;;;5.80;1.65;;;;;;;;;;4974128;28;20054;-76
2022/06/13 08:41:14;;;;;;;5.47;1.58;;;;;;;;;;4974096;28;20374;-76
2022/06/13 08:44:10;;;;;;;5.35;1.55;;;;;;;;;;4956622;28;20447;-77
2022/06/13 08:46:54;;;;;;;3.60;1.60;;;;;;;;;;4974026;28;20026;-76
2022/06/13 08:49:40;;;;;;;6.43;1.88;;;;;;;;;;4974182;28;20049;-75
2022/06/13 08:52:14;;;;;;;8.20;2.10;;;;;;;;;;4974077;28;20019;-76
2022/06/13 08:54:40;;;;;;;;;;;;;;;;;;4974373;28;20531;-76
2022/06/13 08:57:10;;;;;;;5.88;1.83;;;;;;;;;;4972540;28;19913;-76
2022/06/13 08:59:55;;;;;;;10.10;2.20;;;;;;;;;;4973878;28;20105;-77
2022/06/13 09:02:31;;;;;;;7.60;1.90;;;;;;;;;;4973776;28;20027;-77
2022/06/13 09:05:28;;;;;;;8.70;1.80;;;;;;;;;;4957039;28;20062;-77
2022/06/13 09:08:07;;;;;;;7.05;2.00;;;;;;;;;;4977268;28;20026;-76
2022/06/13 09:10:47;;;;;;;6.00;1.98;;;;;;;;;;4977346;28;20412;-77
2022/06/13 09:13:28;;;;;;;7.88;1.80;;;;;;;;;;4977614;28;20023;-76
2022/06/13 09:15:58;;;;;;;6.00;1.70;;;;;;;;;;4959897;28;20480;-76
2022/06/13 09:18:41;;;;;;;7.05;1.95;;;;;;;;;;4959912;28;20027;-76
2022/06/13 09:21:29;;;;;;;5.35;1.83;;;;;;;;;;4977458;28;20042;-76
2022/06/13 09:24:16;;;;;;;5.45;1.60;;;;;;;;;;4977251;28;20059;-77
2022/06/13 09:26:53;;;;;;;6.57;2.00;;;;;;;;;;4977501;28;20038;-76
2022/06/13 09:29:26;;;;;;;4.82;2.20;;;;;;;;;;4977493;28;20480;-76
2022/06/13 09:32:10;;;;;;;5.70;1.90;;;;;;;;;;4977134;28;20030;-77
2022/06/13 09:35:04;;;;;;;5.25;1.60;;;;;;;;;;4976941;28;20416;-77
2022/06/13 09:37:38;;;;;;;6.53;1.83;;;;;;;;;;4976762;28;20039;-75
2022/06/13 09:40:04;;;;;;;12.20;1.98;;;;;;;;;;4977008;28;20081;-76
2022/06/13 09:42:48;;;;;;;5.40;1.67;;;;;;;;;;4976641;28;20508;-77
2022/06/13 09:45:22;;;;;;;;;;;;;;;;;;4977131;28;20041;-77
2022/06/13 09:47:59;;;;;;;7.35;1.88;;;;;;;;;;4976597;28;19910;-76
2022/06/13 09:50:53;;;;;;;6.15;1.80;;;;;;;;;;4976872;28;20118;-76
2022/06/13 09:53:45;;;;;;;5.53;1.98;;;;;;;;;;4976462;28;20034;-77
2022/06/13 09:56:24;;;;;;;6.10;1.83;;;;;;;;;;4976670;28;20031;-76
2022/06/13 09:59:14;;;;;;;5.50;1.77;;;;;;;;;;4959282;28;20408;-76
2022/06/13 10:02:07;;;;;;;6.93;1.88;;;;;;;;;;4976416;28;20128;-77
2022/06/13 10:04:47;;;;;;;5.18;2.03;;;;;;;;;;4976617;28;20154;-76
2022/06/13 10:07:22;;;;;;;8.20;2.15;;;;;;;;;;4976834;28;20027;-77
2022/06/13 10:10:02;;;;;;;5.55;1.92;;;;;;;;;;4959084;28;20037;-77
2022/06/13 10:12:54;;;;;;;5.38;1.73;;;;;;;;;;4958808;28;20500;-76
2022/06/13 10:15:56;;;;;;;8.43;1.90;;;;;;;;;;4976523;28;20026;-76
2022/06/13 10:18:41;;;;;;;9.75;2.00;;;;;;;;;;4957974;28;20023;-77
2022/06/13 10:21:19;;;;;;;9.73;2.00;;;;;;;;;;4976357;28;20135;-77
2022/06/13 10:24:10;;;;;;;7.65;2.00;;;;;;;;;;4976298;28;20050;-76
2022/06/13 10:26:50;;;;;;;4.00;1.70;;;;;;;;;;4976359;28;20109;-77
2022/06/13 10:29:31;;;;;;;3.45;1.48;;;;;;;;;;4975983;28;20031;-76
2022/06/13 10:32:37;;;;;;;4.28;1.85;;;;;;;;;;4976147;28;20022;-77
2022/06/13 10:35:40;;;;;;;6.75;1.65;;;;;;;;;;4958354;28;20029;-77
2022/06/13 10:38:17;;;;;;;6.70;1.92;;;;;;;;;;4976102;28;20022;-76
2022/06/13 10:40:43;;;;;;;6.95;1.90;;;;;;;;;;4975647;28;20038;-77
2022/06/13 10:43:09;;;;;;;6.00;2.10;;;;;;;;;;4975501;28;20031;-76
2022/06/13 10:45:36;;;;;;;3.83;1.50;;;;;;;;;;4958342;28;20381;-76
2022/06/13 10:48:18;;;;;;;6.75;1.73;;;;;;;;;;4958120;28;20034;-77
2022/06/13 10:50:53;;;;;;;5.85;1.75;;;;;;;;;;4975521;28;20500;-75
2022/06/13 10:53:26;;;;;;;4.38;2.13;;;;;;;;;;4975388;28;20035;-76
2022/06/13 10:55:56;;;;;;;6.15;2.08;;;;;;;;;;4958090;28;20031;-75
2022/06/13 10:58:28;;;;;;;8.20;1.73;;;;;;;;;;4975456;28;20090;-75
2022/06/13 11:01:12;;;;;;;8.50;1.98;;;;;;;;;;4957693;28;20026;-77
2022/06/13 11:04:03;;;;;;;6.50;2.05;;;;;;;;;;4975404;28;20026;-80
2022/06/13 11:06:41;;;;;;;8.70;2.08;;;;;;;;;;4957822;28;20045;-77
2022/06/13 11:09:35;;;;;;;4.68;1.80;;;;;;;;;;4958487;28;20058;-77
2022/06/13 11:12:04;;;;;;;6.97;1.80;;;;;;;;;;4975288;28;20037;-76
2022/06/13 11:14:35;;;;;;;5.40;1.48;;;;;;;;;;4975154;28;20030;-76
2022/06/13 11:22:39;;;;;;;5.93;2.10;;;;;;;;;;4975298;28;20041;-77
2022/06/13 11:25:23;;;;;;;7.65;1.77;;;;;;;;;;4974992;28;20110;-75
2022/06/13 11:28:06;;;;;;;6.13;1.75;;;;;;;;;;4975191;28;20087;-75
2022/06/13 11:30:49;;;;;;;10.07;2.47;;;;;;;;;;4975396;28;20392;-76
2022/06/13 11:33:24;;;;;;;5.03;1.70;;;;;;;;;;4957991;28;20069;-77
2022/06/13 11:35:56;;;;;;;8.70;1.70;;;;;;;;;;4974961;28;20054;-76
2022/06/13 11:38:28;;;;;;;4.50;1.50;;;;;;;;;;4974791;28;20031;-75
2022/06/13 11:40:56;;;;;;;3.20;1.38;;;;;;;;;;4974791;28;20042;-76
2022/06/13 11:43:32;;;;;;;6.47;1.85;;;;;;;;;;4974755;28;20058;-76
2022/06/13 11:46:01;;;;;;;5.55;1.77;;;;;;;;;;4975113;28;20030;-78
2022/06/13 11:48:28;;;;;;;7.55;1.67;;;;;;;;;;4974608;28;20030;-76
2022/06/13 11:51:01;;;;;;;22.92;1.65;;;;;;;;;;4974784;28;20130;-77
2022/06/13 11:53:36;;;;;;;5.17;1.33;;;;;;;;;;4974207;28;20031;-76
2022/06/13 11:56:08;;;;;;;4.13;1.40;;;;;;;;;;4956908;28;20778;-77
2022/06/13 11:58:38;;;;;;;8.45;1.70;;;;;;;;;;4957040;28;20056;-78
2022/06/13 12:01:25;;;;;;;8.40;1.60;;;;;;;;;;4974325;28;20034;-77
2022/06/13 12:04:00;;;;;;;4.72;1.50;;;;;;;;;;4974447;28;20395;-77
2022/06/13 12:06:26;;;;;;;4.95;1.65;;;;;;;;;;4974676;28;20488;-76
2022/06/13 12:09:03;;;;;;;4.93;1.50;;;;;;;;;;4974775;28;20031;-75
2022/06/13 12:11:28;;;;;;;11.23;1.95;;;;;;;;;;4974619;28;20023;-77
2022/06/13 12:13:59;;;;;;;9.27;1.42;;;;;;;;;;4956814;28;20101;-77
2022/06/13 12:16:39;;;;;;;4.63;1.60;;;;;;;;;;4974108;28;20029;-77
2022/06/13 12:19:23;;;;;;;6.32;1.52;;;;;;;;;;4956876;28;20027;-76
2022/06/13 12:22:03;;;;;;;4.13;1.60;;;;;;;;;;4974147;28;20469;-76
2022/06/13 12:24:46;;;;;;;11.50;1.63;;;;;;;;;;4974058;28;20568;-77
2022/06/13 12:27:44;;;;;;;15.05;1.63;;;;;;;;;;4974269;28;20555;-76
2022/06/13 12:30:40;;;;;;;8.68;1.45;;;;;;;;;;4973941;28;20182;-77
2022/06/13 12:33:39;;;;;;;7.03;1.80;;;;;;;;;;4956386;28;20015;-76
2022/06/13 12:36:26;;;;;;;3.83;1.15;;;;;;;;;;4974467;28;20030;-75
2022/06/13 12:39:09;;;;;;;12.13;1.20;;;;;;;;;;4974503;28;20389;-76
2022/06/13 12:41:44;;;;;;;8.10;1.33;;;;;;;;;;4976153;28;20058;-77
2022/06/13 12:44:24;;;;;;;5.30;1.30;;;;;;;;;;4977666;28;20518;-76
2022/06/13 12:47:09;;;;;;;2.50;1.42;;;;;;;;;;4960260;28;20030;-77
2022/06/13 12:49:42;;;;;;;5.50;1.20;;;;;;;;;;4960184;28;20026;-76
2022/06/13 12:52:16;;;;;;;2.00;1.00;;;;;;;;;;4977599;28;20077;-76
2022/06/13 12:55:00;;;;;;;5.57;1.20;;;;;;;;;;4977467;28;20042;-76
2022/06/13 12:57:46;;;;;;;;;;;;;;;;;;4977914;28;20046;-77
2022/06/13 13:00:19;;;;;;;4.43;1.00;;;;;;;;;;4977671;28;19910;-77
2022/06/13 13:03:19;;;;;;;8.00;1.30;;;;;;;;;;4977362;28;20420;-77
2022/06/13 13:05:50;;;;;;;3.45;1.23;;;;;;;;;;4976962;28;20039;-77
2022/06/13 13:08:43;;;;;;;6.70;1.15;;;;;;;;;;4977373;28;20102;-76
2022/06/13 13:11:48;;;;;;;3.20;1.20;;;;;;;;;;4977174;28;20027;-76
2022/06/13 13:14:37;;;;;;;4.28;1.20;;;;;;;;;;4977268;28;20036;-78
2022/06/13 13:17:20;;;;;;;5.80;1.30;;;;;;;;;;4977429;28;20050;-77
2022/06/13 13:19:51;;;;;;;3.88;1.10;;;;;;;;;;4977473;28;20037;-76
2022/06/13 13:22:44;;;;;;;2.45;1.20;;;;;;;;;;4977142;28;20031;-76
2022/06/13 13:25:29;;;;;;;2.70;1.40;;;;;;;;;;4977141;28;20050;-76
2022/06/13 13:28:32;;;;;;;2.40;1.08;;;;;;;;;;4977155;28;20031;-75
2022/06/13 13:31:08;;;;;;;3.60;1.10;;;;;;;;;;4959588;28;20518;-76
2022/06/13 13:33:58;;;;;;;4.45;1.13;;;;;;;;;;4977133;28;20026;-75
2022/06/13 13:36:54;;;;;;;5.45;1.10;;;;;;;;;;4977376;28;20033;-76
2022/06/13 13:39:28;;;;;;;6.13;1.10;;;;;;;;;;4976970;28;20030;-76
2022/06/13 13:41:59;;;;;;;2.97;1.20;;;;;;;;;;4976443;28;20134;-76
2022/06/13 13:44:35;;;;;;;4.88;1.20;;;;;;;;;;4959303;28;20026;-76
2022/06/13 13:47:11;;;;;;;2.15;1.02;;;;;;;;;;4976738;28;20031;-76
2022/06/13 13:49:53;;;;;;;8.25;1.50;;;;;;;;;;4959173;28;20031;-76
2022/06/13 13:52:31;;;;;;;3.33;1.00;;;;;;;;;;4976541;28;20090;-76
2022/06/13 13:55:40;;;;;;;1.52;1.00;;;;;;;;;;4976448;28;20027;-76
2022/06/13 13:58:13;;;;;;;1.40;1.00;;;;;;;;;;4976407;28;20026;-77
2022/06/13 14:00:50;;;;;;;6.37;1.50;;;;;;;;;;4976938;28;20107;-77
2022/06/13 14:03:32;;;;;;;2.95;0.85;;;;;;;;;;4976185;28;20789;-77
2022/06/13 14:06:01;;;;;;;2.58;0.90;;;;;;;;;;4958839;28;20065;-75
2022/06/13 14:08:29;;;;;;;3.05;0.90;;;;;;;;;;4976372;28;20034;-76
2022/06/13 14:10:57;;;;;;;2.90;1.08;;;;;;;;;;4975972;28;20023;-76
2022/06/13 14:13:34;;;;;;;2.22;1.10;;;;;;;;;;4976356;28;20034;-77
2022/06/13 14:16:05;;;;;;;2.63;1.10;;;;;;;;;;4976463;28;20411;-76
2022/06/13 14:18:38;;;;;;;2.88;1.10;;;;;;;;;;4975775;28;20075;-77
2022/06/13 14:21:19;;;;;;;3.72;1.05;;;;;;;;;;4975732;28;20377;-77
2022/06/13 14:23:48;;;;;;;3.75;1.10;;;;;;;;;;4975770;28;20392;-77
2022/06/13 14:26:33;;;;;;;4.00;1.30;;;;;;;;;;4975062;28;20022;-77
2022/06/13 14:29:04;;;;;;;3.70;1.42;;;;;;;;;;4975282;28;20422;-77
2022/06/13 14:31:29;;;;;;;7.85;1.30;;;;;;;;;;4976167;28;20224;-77
2022/06/13 14:36:47;;;;;;;5.72;1.40;;;;;;;;;;4975257;28;20503;-77
2022/06/13 14:39:37;;;;;;;3.78;1.00;;;;;;;;;;4958267;28;20030;-76
2022/06/13 14:42:21;;;;;;;3.13;1.40;;;;;;;;;;4975995;28;20027;-76
2022/06/13 14:44:52;;;;;;;1.85;0.90;;;;;;;;;;4957884;28;20042;-77
2022/06/13 14:47:23;;;;;;;2.38;1.10;;;;;;;;;;4974908;28;20362;-76
2022/06/13 14:49:55;;;;;;;3.58;1.20;;;;;;;;;;4975647;28;20035;-77
2022/06/13 14:52:39;;;;;;;3.38;1.20;;;;;;;;;;4975112;28;20023;-77
2022/06/13 14:55:04;;;;;;;5.07;1.30;;;;;;;;;;4975346;28;20134;-77
2022/06/13 14:57:36;;;;;;;2.87;1.17;;;;;;;;;;4975860;28;20062;-75
2022/06/13 15:00:23;;;;;;;5.40;1.25;;;;;;;;;;4958623;28;20742;-77
2022/06/13 15:02:54;;;;;;;2.08;1.20;;;;;;;;;;4974639;28;20027;-77
2022/06/13 15:05:23;;;;;;;2.38;1.23;;;;;;;;;;4974780;28;20076;-77
2022/06/13 15:08:02;;;;;;;7.43;1.63;;;;;;;;;;4975026;28;20118;-77
2022/06/13 15:10:49;;;;;;;7.05;1.17;;;;;;;;;;4975176;28;20085;-77
2022/06/13 15:13:19;;;;;;;5.07;1.30;;;;;;;;;;4974832;28;20023;-77
2022/06/13 15:15:51;;;;;;;3.50;1.50;;;;;;;;;;4975214;28;20552;-76
2022/06/13 15:18:23;;;;;;;3.05;1.30;;;;;;;;;;4974817;28;20030;-76
2022/06/13 15:20:51;;;;;;;4.15;1.48;;;;;;;;;;4974736;28;20119;-76
2022/06/13 15:23:21;;;;;;;5.13;1.48;;;;;;;;;;4974467;28;20042;-75
2022/06/13 15:25:49;;;;;;;5.03;1.58;;;;;;;;;;4975794;28;20464;-76
2022/06/13 15:28:18;;;;;;;3.22;1.50;;;;;;;;;;4975034;28;20387;-77
2022/06/13 15:31:04;;;;;;;5.20;1.45;;;;;;;;;;4974798;28;20038;-75
2022/06/13 15:33:29;;;;;;;4.68;1.60;;;;;;;;;;4974638;28;20030;-76
2022/06/13 15:36:04;;;;;;;3.78;1.60;;;;;;;;;;4974864;28;20543;-76
2022/06/13 15:38:48;;;;;;;6.35;1.30;;;;;;;;;;4974685;28;20037;-77
2022/06/13 15:41:28;;;;;;;6.57;1.70;;;;;;;;;;4974501;28;20026;-75
2022/06/13 15:43:55;;;;;;;4.85;1.98;;;;;;;;;;4974633;28;20043;-77
2022/06/13 15:46:31;;;;;;;5.38;1.80;;;;;;;;;;4957200;28;20031;-76
2022/06/13 15:49:01;;;;;;;5.07;1.35;;;;;;;;;;4974523;28;20512;-76